sensor_id;sensor_type;location;lat;lon;timestamp;temperature;humidity
67196;DHT22;54122;53.538;49.366;2022-12-16T00:01:49;-5.60;90.20
67196;DHT22;54122;53.538;49.366;2022-12-16T00:04:21;-5.60;90.20
67196;DHT22;54122;53.538;49.366;2022-12-16T00:06:52;-5.60;90.10
67196;DHT22;54122;53.538;49.366;2022-12-16T00:09:29;-5.60;90.00
67196;DHT22;54122;53.538;49.366;2022-12-16T00:12:00;-5.50;90.10
67196;DHT22;54122;53.538;49.366;2022-12-16T00:14:32;-5.50;90.10
67196;DHT22;54122;53.538;49.366;2022-12-16T00:17:03;-5.50;90.10
67196;DHT22;54122;53.538;49.366;2022-12-16T00:19:35;-5.50;90.50
67196;DHT22;54122;53.538;49.366;2022-12-16T00:22:06;-5.50;90.00
67196;DHT22;54122;53.538;49.366;2022-12-16T00:24:38;-5.60;89.90
67196;DHT22;54122;53.538;49.366;2022-12-16T00:27:09;-5.60;90.00
67196;DHT22;54122;53.538;49.366;2022-12-16T00:29:40;-5.70;90.00
67196;DHT22;54122;53.538;49.366;2022-12-16T00:32:12;-5.80;90.10
67196;DHT22;54122;53.538;49.366;2022-12-16T00:34:43;-5.80;90.20
67196;DHT22;54122;53.538;49.366;2022-12-16T00:37:15;-5.90;90.20
67196;DHT22;54122;53.538;49.366;2022-12-16T00:39:46;-5.90;90.30
67196;DHT22;54122;53.538;49.366;2022-12-16T00:42:18;-5.90;90.30
67196;DHT22;54122;53.538;49.366;2022-12-16T00:44:49;-6.00;90.40
67196;DHT22;54122;53.538;49.366;2022-12-16T00:47:20;-6.00;90.50
67196;DHT22;54122;53.538;49.366;2022-12-16T00:49:52;-6.10;90.50
67196;DHT22;54122;53.538;49.366;2022-12-16T00:52:23;-6.10;90.50
67196;DHT22;54122;53.538;49.366;2022-12-16T00:54:55;-6.10;90.50
67196;DHT22;54122;53.538;49.366;2022-12-16T00:57:26;-6.20;90.40
67196;DHT22;54122;53.538;49.366;2022-12-16T00:59:57;-6.20;90.40
67196;DHT22;54122;53.538;49.366;2022-12-16T01:02:29;-6.20;90.40
67196;DHT22;54122;53.538;49.366;2022-12-16T01:05:01;-6.30;90.50
67196;DHT22;54122;53.538;49.366;2022-12-16T01:07:33;-6.20;90.60
67196;DHT22;54122;53.538;49.366;2022-12-16T01:10:05;-6.20;90.80
67196;DHT22;54122;53.538;49.366;2022-12-16T01:12:38;-6.20;90.60
67196;DHT22;54122;53.538;49.366;2022-12-16T01:15:10;-6.20;90.50
67196;DHT22;54122;53.538;49.366;2022-12-16T01:17:43;-6.10;90.50
67196;DHT22;54122;53.538;49.366;2022-12-16T01:20:15;-6.10;90.50
67196;DHT22;54122;53.538;49.366;2022-12-16T01:22:46;-6.10;90.50
67196;DHT22;54122;53.538;49.366;2022-12-16T01:25:18;-6.10;90.40
67196;DHT22;54122;53.538;49.366;2022-12-16T01:27:49;-6.00;90.30
67196;DHT22;54122;53.538;49.366;2022-12-16T01:30:21;-5.90;90.30
67196;DHT22;54122;53.538;49.366;2022-12-16T01:32:53;-5.90;90.20
67196;DHT22;54122;53.538;49.366;2022-12-16T01:35:24;-5.90;90.10
67196;DHT22;54122;53.538;49.366;2022-12-16T01:37:55;-5.90;89.90
67196;DHT22;54122;53.538;49.366;2022-12-16T01:40:27;-5.90;89.80
67196;DHT22;54122;53.538;49.366;2022-12-16T01:42:59;-5.80;89.70
67196;DHT22;54122;53.538;49.366;2022-12-16T01:45:34;-5.80;89.60
67196;DHT22;54122;53.538;49.366;2022-12-16T01:48:33;-5.80;89.60
67196;DHT22;54122;53.538;49.366;2022-12-16T01:51:27;-5.70;89.60
67196;DHT22;54122;53.538;49.366;2022-12-16T01:54:07;-5.80;89.50
67196;DHT22;54122;53.538;49.366;2022-12-16T01:56:43;-5.80;89.50
67196;DHT22;54122;53.538;49.366;2022-12-16T01:59:16;-5.80;89.60
67196;DHT22;54122;53.538;49.366;2022-12-16T02:01:48;-5.80;89.60
67196;DHT22;54122;53.538;49.366;2022-12-16T02:04:20;-5.80;89.60
67196;DHT22;54122;53.538;49.366;2022-12-16T02:06:52;-5.80;89.70
67196;DHT22;54122;53.538;49.366;2022-12-16T02:09:24;-5.80;89.60
67196;DHT22;54122;53.538;49.366;2022-12-16T02:21:08;-5.90;89.40
67196;DHT22;54122;53.538;49.366;2022-12-16T02:33:37;-6.00;89.60
67196;DHT22;54122;53.538;49.366;2022-12-16T02:47:16;-6.10;89.80
67196;DHT22;54122;53.538;49.366;2022-12-16T02:49:50;-6.00;89.60
67196;DHT22;54122;53.538;49.366;2022-12-16T02:52:24;-6.00;89.50
67196;DHT22;54122;53.538;49.366;2022-12-16T02:55:00;-5.90;89.30
67196;DHT22;54122;53.538;49.366;2022-12-16T03:00:46;-5.80;88.40
67196;DHT22;54122;53.538;49.366;2022-12-16T03:03:35;-5.80;87.90
67196;DHT22;54122;53.538;49.366;2022-12-16T03:06:10;-5.80;87.50
67196;DHT22;54122;53.538;49.366;2022-12-16T03:08:48;-5.80;87.00
67196;DHT22;54122;53.538;49.366;2022-12-16T03:11:23;-5.80;86.40
67196;DHT22;54122;53.538;49.366;2022-12-16T03:13:58;-5.90;86.30
67196;DHT22;54122;53.538;49.366;2022-12-16T03:16:32;-5.90;86.40
67196;DHT22;54122;53.538;49.366;2022-12-16T03:19:07;-5.90;86.30
67196;DHT22;54122;53.538;49.366;2022-12-16T03:21:53;-5.90;86.10
67196;DHT22;54122;53.538;49.366;2022-12-16T03:24:28;-5.90;85.90
67196;DHT22;54122;53.538;49.366;2022-12-16T03:27:15;-5.90;85.70
67196;DHT22;54122;53.538;49.366;2022-12-16T03:35:21;-6.00;84.90
67196;DHT22;54122;53.538;49.366;2022-12-16T03:37:56;-5.90;84.70
67196;DHT22;54122;53.538;49.366;2022-12-16T03:40:28;-5.90;84.50
67196;DHT22;54122;53.538;49.366;2022-12-16T03:43:02;-5.80;84.20
67196;DHT22;54122;53.538;49.366;2022-12-16T03:45:39;-5.70;84.00
67196;DHT22;54122;53.538;49.366;2022-12-16T03:48:12;-5.70;83.30
67196;DHT22;54122;53.538;49.366;2022-12-16T03:50:44;-5.70;82.80
67196;DHT22;54122;53.538;49.366;2022-12-16T03:53:15;-5.70;82.40
67196;DHT22;54122;53.538;49.366;2022-12-16T03:55:47;-5.70;82.10
67196;DHT22;54122;53.538;49.366;2022-12-16T03:58:19;-5.70;82.00
67196;DHT22;54122;53.538;49.366;2022-12-16T04:00:50;-5.60;81.90
67196;DHT22;54122;53.538;49.366;2022-12-16T04:03:22;-5.60;81.70
67196;DHT22;54122;53.538;49.366;2022-12-16T04:05:53;-5.60;81.70
67196;DHT22;54122;53.538;49.366;2022-12-16T04:08:25;-5.50;81.80
67196;DHT22;54122;53.538;49.366;2022-12-16T04:10:57;-5.50;81.70
67196;DHT22;54122;53.538;49.366;2022-12-16T04:13:46;-5.50;81.40
67196;DHT22;54122;53.538;49.366;2022-12-16T04:16:36;-5.50;81.30
67196;DHT22;54122;53.538;49.366;2022-12-16T04:19:32;-5.40;81.30
67196;DHT22;54122;53.538;49.366;2022-12-16T04:22:30;-5.50;81.20
67196;DHT22;54122;53.538;49.366;2022-12-16T04:25:26;-5.40;81.30
67196;DHT22;54122;53.538;49.366;2022-12-16T04:27:58;-5.40;81.40
67196;DHT22;54122;53.538;49.366;2022-12-16T04:30:31;-5.40;81.50
67196;DHT22;54122;53.538;49.366;2022-12-16T04:33:12;-5.30;81.70
67196;DHT22;54122;53.538;49.366;2022-12-16T04:36:03;-5.30;81.80
67196;DHT22;54122;53.538;49.366;2022-12-16T04:38:56;-5.30;82.20
67196;DHT22;54122;53.538;49.366;2022-12-16T04:41:45;-5.30;82.30
67196;DHT22;54122;53.538;49.366;2022-12-16T04:44:43;-5.20;82.70
67196;DHT22;54122;53.538;49.366;2022-12-16T04:47:32;-5.30;82.80
67196;DHT22;54122;53.538;49.366;2022-12-16T04:50:22;-5.20;82.90
67196;DHT22;54122;53.538;49.366;2022-12-16T04:53:12;-5.20;83.00
67196;DHT22;54122;53.538;49.366;2022-12-16T04:56:02;-5.20;83.10
67196;DHT22;54122;53.538;49.366;2022-12-16T04:58:52;-5.10;83.30
67196;DHT22;54122;53.538;49.366;2022-12-16T05:01:45;-5.10;83.30
67196;DHT22;54122;53.538;49.366;2022-12-16T05:04:35;-5.00;83.40
67196;DHT22;54122;53.538;49.366;2022-12-16T05:07:24;-5.00;83.30
67196;DHT22;54122;53.538;49.366;2022-12-16T05:10:14;-5.00;83.20
67196;DHT22;54122;53.538;49.366;2022-12-16T05:13:04;-4.90;83.30
67196;DHT22;54122;53.538;49.366;2022-12-16T05:15:54;-4.90;83.10
67196;DHT22;54122;53.538;49.366;2022-12-16T05:18:43;-4.80;83.10
67196;DHT22;54122;53.538;49.366;2022-12-16T05:21:33;-4.80;82.90
67196;DHT22;54122;53.538;49.366;2022-12-16T05:24:23;-4.70;82.90
67196;DHT22;54122;53.538;49.366;2022-12-16T05:27:13;-4.70;82.80
67196;DHT22;54122;53.538;49.366;2022-12-16T05:30:03;-4.70;82.70
67196;DHT22;54122;53.538;49.366;2022-12-16T05:32:53;-4.60;82.50
67196;DHT22;54122;53.538;49.366;2022-12-16T05:35:42;-4.60;82.30
67196;DHT22;54122;53.538;49.366;2022-12-16T05:38:32;-4.70;82.30
67196;DHT22;54122;53.538;49.366;2022-12-16T05:41:22;-4.70;82.40
67196;DHT22;54122;53.538;49.366;2022-12-16T05:44:12;-4.70;82.50
67196;DHT22;54122;53.538;49.366;2022-12-16T05:47:02;-4.70;82.60
67196;DHT22;54122;53.538;49.366;2022-12-16T05:49:52;-4.70;82.70
67196;DHT22;54122;53.538;49.366;2022-12-16T05:52:50;-4.60;82.70
67196;DHT22;54122;53.538;49.366;2022-12-16T05:55:41;-4.60;83.50
67196;DHT22;54122;53.538;49.366;2022-12-16T05:58:33;-4.60;82.50
67196;DHT22;54122;53.538;49.366;2022-12-16T06:01:23;-4.60;82.60
67196;DHT22;54122;53.538;49.366;2022-12-16T06:04:13;-4.50;82.30
67196;DHT22;54122;53.538;49.366;2022-12-16T06:07:03;-4.50;82.10
67196;DHT22;54122;53.538;49.366;2022-12-16T06:10:08;-4.40;82.10
67196;DHT22;54122;53.538;49.366;2022-12-16T06:12:58;-4.40;82.10
67196;DHT22;54122;53.538;49.366;2022-12-16T06:15:48;-4.30;81.80
67196;DHT22;54122;53.538;49.366;2022-12-16T06:18:38;-4.30;81.20
67196;DHT22;54122;53.538;49.366;2022-12-16T06:21:28;-4.30;80.90
67196;DHT22;54122;53.538;49.366;2022-12-16T06:24:18;-4.30;80.60
67196;DHT22;54122;53.538;49.366;2022-12-16T06:27:08;-4.20;80.40
67196;DHT22;54122;53.538;49.366;2022-12-16T06:29:58;-4.10;80.50
67196;DHT22;54122;53.538;49.366;2022-12-16T06:32:49;-4.00;80.10
67196;DHT22;54122;53.538;49.366;2022-12-16T06:35:38;-3.90;79.90
67196;DHT22;54122;53.538;49.366;2022-12-16T06:38:28;-3.80;79.60
67196;DHT22;54122;53.538;49.366;2022-12-16T06:41:19;-3.80;79.20
67196;DHT22;54122;53.538;49.366;2022-12-16T06:44:09;-3.60;79.10
67196;DHT22;54122;53.538;49.366;2022-12-16T06:46:58;-3.50;78.80
67196;DHT22;54122;53.538;49.366;2022-12-16T06:49:48;-3.40;78.60
67196;DHT22;54122;53.538;49.366;2022-12-16T06:52:43;-3.20;77.90
67196;DHT22;54122;53.538;49.366;2022-12-16T06:55:33;-3.10;77.50
67196;DHT22;54122;53.538;49.366;2022-12-16T06:58:23;-3.00;77.40
67196;DHT22;54122;53.538;49.366;2022-12-16T07:01:13;-2.80;77.10
67196;DHT22;54122;53.538;49.366;2022-12-16T07:04:03;-2.70;76.40
67196;DHT22;54122;53.538;49.366;2022-12-16T07:06:52;-2.70;76.30
67196;DHT22;54122;53.538;49.366;2022-12-16T07:09:42;-2.60;75.80
67196;DHT22;54122;53.538;49.366;2022-12-16T07:12:32;-2.60;75.00
67196;DHT22;54122;53.538;49.366;2022-12-16T07:15:22;-2.70;74.30
67196;DHT22;54122;53.538;49.366;2022-12-16T07:18:12;-2.80;73.50
67196;DHT22;54122;53.538;49.366;2022-12-16T07:21:02;-3.00;72.90
67196;DHT22;54122;53.538;49.366;2022-12-16T07:23:52;-3.10;72.80
67196;DHT22;54122;53.538;49.366;2022-12-16T07:26:49;-3.10;72.70
67196;DHT22;54122;53.538;49.366;2022-12-16T07:29:39;-3.10;73.00
67196;DHT22;54122;53.538;49.366;2022-12-16T07:32:29;-3.10;73.00
67196;DHT22;54122;53.538;49.366;2022-12-16T07:35:19;-3.10;72.40
67196;DHT22;54122;53.538;49.366;2022-12-16T07:38:08;-3.10;72.30
67196;DHT22;54122;53.538;49.366;2022-12-16T07:40:58;-3.10;71.90
67196;DHT22;54122;53.538;49.366;2022-12-16T07:43:48;-3.10;71.70
67196;DHT22;54122;53.538;49.366;2022-12-16T07:46:37;-3.00;71.60
67196;DHT22;54122;53.538;49.366;2022-12-16T07:49:27;-3.00;71.60
67196;DHT22;54122;53.538;49.366;2022-12-16T07:52:17;-3.00;71.60
67196;DHT22;54122;53.538;49.366;2022-12-16T07:55:07;-2.90;71.70
67196;DHT22;54122;53.538;49.366;2022-12-16T07:57:57;-2.90;71.60
67196;DHT22;54122;53.538;49.366;2022-12-16T08:00:46;-2.90;71.10
67196;DHT22;54122;53.538;49.366;2022-12-16T08:03:36;-2.90;71.00
67196;DHT22;54122;53.538;49.366;2022-12-16T08:06:26;-2.90;71.10
67196;DHT22;54122;53.538;49.366;2022-12-16T08:09:17;-2.90;71.40
67196;DHT22;54122;53.538;49.366;2022-12-16T08:12:07;-2.90;71.40
67196;DHT22;54122;53.538;49.366;2022-12-16T08:15:13;-2.80;71.40
67196;DHT22;54122;53.538;49.366;2022-12-16T08:18:03;-2.80;71.00
67196;DHT22;54122;53.538;49.366;2022-12-16T08:20:54;-2.80;71.00
67196;DHT22;54122;53.538;49.366;2022-12-16T08:23:44;-2.70;70.80
67196;DHT22;54122;53.538;49.366;2022-12-16T08:26:33;-2.60;71.10
67196;DHT22;54122;53.538;49.366;2022-12-16T08:29:23;-2.40;71.10
67196;DHT22;54122;53.538;49.366;2022-12-16T08:32:14;-2.30;71.00
67196;DHT22;54122;53.538;49.366;2022-12-16T08:35:04;-2.10;70.70
67196;DHT22;54122;53.538;49.366;2022-12-16T08:37:55;-2.00;70.40
67196;DHT22;54122;53.538;49.366;2022-12-16T08:40:46;-1.80;69.80
67196;DHT22;54122;53.538;49.366;2022-12-16T08:43:36;-1.80;69.50
67196;DHT22;54122;53.538;49.366;2022-12-16T08:46:26;-1.80;70.00
67196;DHT22;54122;53.538;49.366;2022-12-16T08:49:15;-1.80;69.00
67196;DHT22;54122;53.538;49.366;2022-12-16T08:52:05;-1.80;69.00
67196;DHT22;54122;53.538;49.366;2022-12-16T08:54:55;-1.80;68.70
67196;DHT22;54122;53.538;49.366;2022-12-16T08:57:52;-1.80;69.10
67196;DHT22;54122;53.538;49.366;2022-12-16T09:00:42;-1.70;69.20
67196;DHT22;54122;53.538;49.366;2022-12-16T09:03:32;-1.50;69.30
67196;DHT22;54122;53.538;49.366;2022-12-16T09:06:22;-1.40;68.70
67196;DHT22;54122;53.538;49.366;2022-12-16T09:09:11;-1.30;67.70
67196;DHT22;54122;53.538;49.366;2022-12-16T09:12:01;-1.20;68.00
67196;DHT22;54122;53.538;49.366;2022-12-16T09:14:51;-1.20;67.70
67196;DHT22;54122;53.538;49.366;2022-12-16T09:17:41;-1.10;67.80
67196;DHT22;54122;53.538;49.366;2022-12-16T09:20:31;-0.90;67.50
67196;DHT22;54122;53.538;49.366;2022-12-16T09:23:21;-0.90;67.10
67196;DHT22;54122;53.538;49.366;2022-12-16T09:26:11;-0.90;67.20
67196;DHT22;54122;53.538;49.366;2022-12-16T09:29:00;-0.90;67.20
67196;DHT22;54122;53.538;49.366;2022-12-16T09:31:50;-0.90;67.20
67196;DHT22;54122;53.538;49.366;2022-12-16T09:34:40;-0.90;66.80
67196;DHT22;54122;53.538;49.366;2022-12-16T09:37:29;-1.00;66.80
67196;DHT22;54122;53.538;49.366;2022-12-16T09:40:19;-0.90;66.90
67196;DHT22;54122;53.538;49.366;2022-12-16T09:46:42;-1.10;67.20
67196;DHT22;54122;53.538;49.366;2022-12-16T09:49:44;-1.10;67.50
67196;DHT22;54122;53.538;49.366;2022-12-16T09:52:44;-1.10;67.70
67196;DHT22;54122;53.538;49.366;2022-12-16T09:55:42;-1.20;67.40
67196;DHT22;54122;53.538;49.366;2022-12-16T09:58:43;-1.20;67.60
67196;DHT22;54122;53.538;49.366;2022-12-16T10:01:36;-1.30;67.90
67196;DHT22;54122;53.538;49.366;2022-12-16T10:04:26;-1.40;68.10
67196;DHT22;54122;53.538;49.366;2022-12-16T10:07:19;-1.50;68.40
67196;DHT22;54122;53.538;49.366;2022-12-16T10:13:16;-1.60;68.70
67196;DHT22;54122;53.538;49.366;2022-12-16T10:16:28;-1.60;69.00
67196;DHT22;54122;53.538;49.366;2022-12-16T10:22:46;-1.70;68.80
67196;DHT22;54122;53.538;49.366;2022-12-16T10:25:48;-1.80;69.20
67196;DHT22;54122;53.538;49.366;2022-12-16T10:28:45;-1.80;69.50
67196;DHT22;54122;53.538;49.366;2022-12-16T10:31:37;-1.80;69.60
67196;DHT22;54122;53.538;49.366;2022-12-16T10:34:29;-1.80;69.70
67196;DHT22;54122;53.538;49.366;2022-12-16T10:37:20;-1.80;69.80
67196;DHT22;54122;53.538;49.366;2022-12-16T10:40:17;-1.80;69.80
67196;DHT22;54122;53.538;49.366;2022-12-16T10:43:17;-1.90;69.80
67196;DHT22;54122;53.538;49.366;2022-12-16T10:46:19;-1.90;70.00
67196;DHT22;54122;53.538;49.366;2022-12-16T10:49:14;-1.90;69.90
67196;DHT22;54122;53.538;49.366;2022-12-16T10:52:05;-1.90;70.00
67196;DHT22;54122;53.538;49.366;2022-12-16T10:55:01;-1.90;70.20
67196;DHT22;54122;53.538;49.366;2022-12-16T10:58:01;-1.90;70.20
67196;DHT22;54122;53.538;49.366;2022-12-16T11:00:54;-1.90;70.10
67196;DHT22;54122;53.538;49.366;2022-12-16T11:03:44;-1.90;71.20
67196;DHT22;54122;53.538;49.366;2022-12-16T11:06:37;-1.80;70.30
67196;DHT22;54122;53.538;49.366;2022-12-16T11:09:32;-1.80;70.20
67196;DHT22;54122;53.538;49.366;2022-12-16T11:12:30;-1.80;70.20
67196;DHT22;54122;53.538;49.366;2022-12-16T11:15:30;-1.70;70.30
67196;DHT22;54122;53.538;49.366;2022-12-16T11:18:21;-1.70;70.90
67196;DHT22;54122;53.538;49.366;2022-12-16T11:21:17;-1.70;69.70
67196;DHT22;54122;53.538;49.366;2022-12-16T11:24:19;-1.80;69.50
67196;DHT22;54122;53.538;49.366;2022-12-16T11:30:31;-1.80;69.90
67196;DHT22;54122;53.538;49.366;2022-12-16T11:33:27;-1.90;70.00
67196;DHT22;54122;53.538;49.366;2022-12-16T11:36:19;-1.90;70.00
67196;DHT22;54122;53.538;49.366;2022-12-16T11:39:20;-1.90;70.20
67196;DHT22;54122;53.538;49.366;2022-12-16T11:42:25;-1.90;70.30
67196;DHT22;54122;53.538;49.366;2022-12-16T11:45:19;-2.00;70.30
67196;DHT22;54122;53.538;49.366;2022-12-16T11:49:02;-2.00;70.50
67196;DHT22;54122;53.538;49.366;2022-12-16T11:51:56;-2.00;70.70
67196;DHT22;54122;53.538;49.366;2022-12-16T11:55:13;-2.00;70.80
67196;DHT22;54122;53.538;49.366;2022-12-16T12:04:05;-2.10;72.70
67196;DHT22;54122;53.538;49.366;2022-12-16T12:13:06;-2.00;71.40
67196;DHT22;54122;53.538;49.366;2022-12-16T12:16:13;-2.00;71.10
67196;DHT22;54122;53.538;49.366;2022-12-16T12:19:28;-2.00;70.80
67196;DHT22;54122;53.538;49.366;2022-12-16T12:22:34;-2.00;70.80
67196;DHT22;54122;53.538;49.366;2022-12-16T12:28:49;-2.00;71.00
67196;DHT22;54122;53.538;49.366;2022-12-16T12:31:54;-2.00;71.00
67196;DHT22;54122;53.538;49.366;2022-12-16T12:38:31;-2.00;71.20
67196;DHT22;54122;53.538;49.366;2022-12-16T12:41:40;-2.00;71.30
67196;DHT22;54122;53.538;49.366;2022-12-16T12:44:42;-2.00;71.40
67196;DHT22;54122;53.538;49.366;2022-12-16T12:47:39;-2.00;71.50
67196;DHT22;54122;53.538;49.366;2022-12-16T12:50:53;-2.00;71.60
67196;DHT22;54122;53.538;49.366;2022-12-16T12:54:14;-1.90;71.80
67196;DHT22;54122;53.538;49.366;2022-12-16T12:57:07;-1.90;72.00
67196;DHT22;54122;53.538;49.366;2022-12-16T13:00:04;-2.00;71.90
67196;DHT22;54122;53.538;49.366;2022-12-16T13:06:23;-1.90;72.30
67196;DHT22;54122;53.538;49.366;2022-12-16T13:09:34;-1.90;72.30
67196;DHT22;54122;53.538;49.366;2022-12-16T13:12:30;-1.90;72.40
67196;DHT22;54122;53.538;49.366;2022-12-16T13:15:35;-2.00;72.40
67196;DHT22;54122;53.538;49.366;2022-12-16T13:18:30;-1.90;72.70
67196;DHT22;54122;53.538;49.366;2022-12-16T13:27:16;-1.90;72.90
67196;DHT22;54122;53.538;49.366;2022-12-16T13:33:04;-1.90;73.00
67196;DHT22;54122;53.538;49.366;2022-12-16T13:35:57;-1.90;73.10
67196;DHT22;54122;53.538;49.366;2022-12-16T13:38:51;-1.90;73.10
67196;DHT22;54122;53.538;49.366;2022-12-16T13:50:42;-1.90;73.30
67196;DHT22;54122;53.538;49.366;2022-12-16T13:53:43;-1.90;73.30
67196;DHT22;54122;53.538;49.366;2022-12-16T13:56:38;-1.90;73.40
67196;DHT22;54122;53.538;49.366;2022-12-16T13:59:31;-1.90;73.50
67196;DHT22;54122;53.538;49.366;2022-12-16T14:02:31;-1.90;73.70
67196;DHT22;54122;53.538;49.366;2022-12-16T14:05:25;-1.80;73.70
67196;DHT22;54122;53.538;49.366;2022-12-16T14:08:19;-1.90;73.70
67196;DHT22;54122;53.538;49.366;2022-12-16T14:11:21;-1.80;73.70
67196;DHT22;54122;53.538;49.366;2022-12-16T14:14:22;-1.80;73.60
67196;DHT22;54122;53.538;49.366;2022-12-16T14:17:53;-1.80;73.50
67196;DHT22;54122;53.538;49.366;2022-12-16T14:20:47;-1.80;73.70
67196;DHT22;54122;53.538;49.366;2022-12-16T14:26:35;-1.80;73.90
67196;DHT22;54122;53.538;49.366;2022-12-16T14:29:26;-1.80;73.90
67196;DHT22;54122;53.538;49.366;2022-12-16T14:32:32;-1.80;74.10
67196;DHT22;54122;53.538;49.366;2022-12-16T14:35:24;-1.80;74.10
67196;DHT22;54122;53.538;49.366;2022-12-16T14:38:27;-1.90;74.20
67196;DHT22;54122;53.538;49.366;2022-12-16T14:41:22;-1.80;74.30
67196;DHT22;54122;53.538;49.366;2022-12-16T14:44:23;-1.80;74.40
67196;DHT22;54122;53.538;49.366;2022-12-16T14:47:18;-1.90;74.60
67196;DHT22;54122;53.538;49.366;2022-12-16T14:50:21;-1.80;74.70
67196;DHT22;54122;53.538;49.366;2022-12-16T14:56:16;-1.80;74.90
67196;DHT22;54122;53.538;49.366;2022-12-16T14:59:14;-1.80;75.00
67196;DHT22;54122;53.538;49.366;2022-12-16T15:02:21;-1.90;75.30
67196;DHT22;54122;53.538;49.366;2022-12-16T15:05:14;-1.90;75.60
67196;DHT22;54122;53.538;49.366;2022-12-16T15:08:05;-1.90;75.70
67196;DHT22;54122;53.538;49.366;2022-12-16T15:10:55;-1.90;75.70
67196;DHT22;54122;53.538;49.366;2022-12-16T15:13:48;-1.80;75.80
67196;DHT22;54122;53.538;49.366;2022-12-16T15:16:42;-1.80;75.80
67196;DHT22;54122;53.538;49.366;2022-12-16T15:19:49;-1.80;75.80
67196;DHT22;54122;53.538;49.366;2022-12-16T15:22:44;-1.80;75.90
67196;DHT22;54122;53.538;49.366;2022-12-16T15:25:36;-1.70;75.90
67196;DHT22;54122;53.538;49.366;2022-12-16T15:28:37;-1.80;75.80
67196;DHT22;54122;53.538;49.366;2022-12-16T15:31:33;-1.70;76.00
67196;DHT22;54122;53.538;49.366;2022-12-16T15:37:18;-1.80;76.20
67196;DHT22;54122;53.538;49.366;2022-12-16T15:40:24;-1.80;76.40
67196;DHT22;54122;53.538;49.366;2022-12-16T15:43:31;-1.70;76.50
67196;DHT22;54122;53.538;49.366;2022-12-16T15:46:28;-1.70;76.50
67196;DHT22;54122;53.538;49.366;2022-12-16T15:55:43;-1.60;76.50
67196;DHT22;54122;53.538;49.366;2022-12-16T15:58:35;-1.60;76.70
67196;DHT22;54122;53.538;49.366;2022-12-16T16:01:26;-1.60;76.80
67196;DHT22;54122;53.538;49.366;2022-12-16T16:07:19;-1.70;77.10
67196;DHT22;54122;53.538;49.366;2022-12-16T16:10:18;-1.70;77.20
67196;DHT22;54122;53.538;49.366;2022-12-16T16:13:08;-1.60;77.40
67196;DHT22;54122;53.538;49.366;2022-12-16T16:15:58;-1.60;77.40
67196;DHT22;54122;53.538;49.366;2022-12-16T16:18:48;-1.60;77.40
67196;DHT22;54122;53.538;49.366;2022-12-16T16:21:38;-1.60;77.40
67196;DHT22;54122;53.538;49.366;2022-12-16T16:24:28;-1.50;77.40
67196;DHT22;54122;53.538;49.366;2022-12-16T16:27:18;-1.50;77.50
67196;DHT22;54122;53.538;49.366;2022-12-16T16:30:10;-1.50;77.50
67196;DHT22;54122;53.538;49.366;2022-12-16T16:33:00;-1.60;77.60
67196;DHT22;54122;53.538;49.366;2022-12-16T16:35:50;-1.60;77.80
67196;DHT22;54122;53.538;49.366;2022-12-16T16:38:40;-1.60;77.90
67196;DHT22;54122;53.538;49.366;2022-12-16T16:41:29;-1.50;78.10
67196;DHT22;54122;53.538;49.366;2022-12-16T16:44:19;-1.60;78.00
67196;DHT22;54122;53.538;49.366;2022-12-16T16:47:15;-1.50;78.10
67196;DHT22;54122;53.538;49.366;2022-12-16T16:50:08;-1.50;78.20
67196;DHT22;54122;53.538;49.366;2022-12-16T16:53:02;-1.60;78.20
67196;DHT22;54122;53.538;49.366;2022-12-16T16:55:52;-1.50;78.30
67196;DHT22;54122;53.538;49.366;2022-12-16T16:58:47;-1.50;78.40
67196;DHT22;54122;53.538;49.366;2022-12-16T17:01:37;-1.50;78.50
67196;DHT22;54122;53.538;49.366;2022-12-16T17:04:26;-1.50;78.60
67196;DHT22;54122;53.538;49.366;2022-12-16T17:07:17;-1.50;78.60
67196;DHT22;54122;53.538;49.366;2022-12-16T17:10:07;-1.50;78.70
67196;DHT22;54122;53.538;49.366;2022-12-16T17:12:57;-1.50;78.70
67196;DHT22;54122;53.538;49.366;2022-12-16T17:15:46;-1.40;78.70
67196;DHT22;54122;53.538;49.366;2022-12-16T17:18:37;-1.50;78.70
67196;DHT22;54122;53.538;49.366;2022-12-16T17:21:32;-1.40;78.80
67196;DHT22;54122;53.538;49.366;2022-12-16T17:24:22;-1.40;78.80
67196;DHT22;54122;53.538;49.366;2022-12-16T17:27:21;-1.40;78.70
67196;DHT22;54122;53.538;49.366;2022-12-16T17:30:18;-1.40;78.70
67196;DHT22;54122;53.538;49.366;2022-12-16T17:33:10;-1.40;78.70
67196;DHT22;54122;53.538;49.366;2022-12-16T17:36:01;-1.40;78.90
67196;DHT22;54122;53.538;49.366;2022-12-16T17:38:51;-1.40;78.90
67196;DHT22;54122;53.538;49.366;2022-12-16T17:41:41;-1.40;79.00
67196;DHT22;54122;53.538;49.366;2022-12-16T17:44:32;-1.40;79.10
67196;DHT22;54122;53.538;49.366;2022-12-16T17:47:22;-1.40;79.10
67196;DHT22;54122;53.538;49.366;2022-12-16T17:50:12;-1.40;79.10
67196;DHT22;54122;53.538;49.366;2022-12-16T17:53:02;-1.40;79.10
67196;DHT22;54122;53.538;49.366;2022-12-16T17:55:52;-1.30;79.20
67196;DHT22;54122;53.538;49.366;2022-12-16T17:58:43;-1.40;79.10
67196;DHT22;54122;53.538;49.366;2022-12-16T18:01:32;-1.30;79.20
67196;DHT22;54122;53.538;49.366;2022-12-16T18:04:22;-1.40;79.10
67196;DHT22;54122;53.538;49.366;2022-12-16T18:07:12;-1.40;79.10
67196;DHT22;54122;53.538;49.366;2022-12-16T18:10:03;-1.30;79.20
67196;DHT22;54122;53.538;49.366;2022-12-16T18:12:54;-1.30;79.20
67196;DHT22;54122;53.538;49.366;2022-12-16T18:15:50;-1.30;79.20
67196;DHT22;54122;53.538;49.366;2022-12-16T18:18:40;-1.30;79.20
67196;DHT22;54122;53.538;49.366;2022-12-16T18:21:30;-1.30;79.20
67196;DHT22;54122;53.538;49.366;2022-12-16T18:24:20;-1.30;79.20
67196;DHT22;54122;53.538;49.366;2022-12-16T18:27:10;-1.30;79.20
67196;DHT22;54122;53.538;49.366;2022-12-16T18:30:00;-1.30;79.20
67196;DHT22;54122;53.538;49.366;2022-12-16T18:32:50;-1.20;79.20
67196;DHT22;54122;53.538;49.366;2022-12-16T18:35:39;-1.20;79.40
67196;DHT22;54122;53.538;49.366;2022-12-16T18:38:30;-1.20;79.30
67196;DHT22;54122;53.538;49.366;2022-12-16T18:41:21;-1.20;79.30
67196;DHT22;54122;53.538;49.366;2022-12-16T18:44:12;-1.20;79.30
67196;DHT22;54122;53.538;49.366;2022-12-16T18:47:02;-1.20;79.40
67196;DHT22;54122;53.538;49.366;2022-12-16T18:49:52;-1.20;79.30
67196;DHT22;54122;53.538;49.366;2022-12-16T18:52:44;-1.20;79.30
67196;DHT22;54122;53.538;49.366;2022-12-16T18:55:33;-1.20;79.20
67196;DHT22;54122;53.538;49.366;2022-12-16T18:58:23;-1.20;79.20
67196;DHT22;54122;53.538;49.366;2022-12-16T19:01:13;-1.20;79.20
67196;DHT22;54122;53.538;49.366;2022-12-16T19:04:03;-1.20;79.20
67196;DHT22;54122;53.538;49.366;2022-12-16T19:06:54;-1.20;79.30
67196;DHT22;54122;53.538;49.366;2022-12-16T19:09:44;-1.20;79.60
67196;DHT22;54122;53.538;49.366;2022-12-16T19:12:33;-1.20;79.60
67196;DHT22;54122;53.538;49.366;2022-12-16T19:15:23;-1.10;79.30
67196;DHT22;54122;53.538;49.366;2022-12-16T19:18:13;-1.10;79.30
67196;DHT22;54122;53.538;49.366;2022-12-16T19:21:03;-1.20;79.20